Time;durP1;ratioP1;P1;durP2;ratioP2;P2;SDS_P1;SDS_P2;PMS_P1;PMS_P2;Temp;Humidity;BMP_temperature;BMP_pressure;BME280_temperature;BME280_humidity;BME280_pressure;Samples;Min_cycle;Max_cycle;Signal;HPM_P1;HPM_P2
2020/12/31 00:02:56;;;;;;;;;;;4.50;99.90;;;0.89;75.56;94872.84;10528986;28;1995;-83
2020/12/31 00:08:17;;;;;;;;;;;2.20;99.90;;;0.77;75.99;94871.06;10533432;28;1891;-83
2020/12/31 00:13:38;;;;;;;;;;;1.90;99.90;;;0.62;76.63;94873.38;10538711;28;2026;-82
2020/12/31 00:18:51;;;;;;;;;;;3.00;99.90;;;0.54;77.15;94882.47;10540559;28;1830;-83
2020/12/31 00:24:02;;;;;;;;;;;3.50;99.90;;;0.50;77.52;94873.41;10547648;28;1898;-82
2020/12/31 00:29:34;;;;;;;;;;;2.60;99.90;;;0.51;77.79;94863.66;10534217;28;1989;-84
2020/12/31 00:34:53;;;;;;;;;;;2.40;99.90;;;0.63;77.21;94866.25;10511038;28;1942;-82
2020/12/31 00:40:01;;;;;;;;;;;1.70;99.90;;;0.57;77.11;94877.75;10536210;28;1879;-82
2020/12/31 00:45:14;;;;;;;;;;;3.00;99.90;;;0.51;77.54;94869.72;10522994;28;2014;-82
2020/12/31 00:50:25;;;;;;;;;;;3.00;99.90;;;0.44;77.72;94882.25;10544527;28;1831;-81
2020/12/31 00:55:42;;;;;;;;;;;3.00;99.90;;;0.52;76.97;94875.81;10534467;28;1875;-84
2020/12/31 01:01:09;;;;;;;;;;;2.30;99.90;;;0.52;76.94;94886.41;10551199;28;1515;-83
2020/12/31 01:06:42;;;;;;;;;;;3.50;99.90;;;0.52;76.77;94887.22;10546387;28;2273;-82
2020/12/31 01:17:25;;;;;;;;;;;1.60;99.90;;;0.71;76.29;94873.84;10511738;28;1782;-83
2020/12/31 01:22:36;;;;;;;;;;;2.60;99.90;;;0.65;76.14;94880.84;10526060;28;2068;-82
2020/12/31 01:28:04;;;;;;;;;;;2.90;99.90;;;0.66;76.20;94885.09;10521158;28;2032;-84
2020/12/31 01:33:24;;;;;;;;;;;3.10;99.90;;;0.61;76.03;94878.91;10542419;28;2052;-83
2020/12/31 01:38:42;;;;;;;;;;;2.40;99.90;;;0.54;76.11;94879.03;10531636;28;2019;-83
2020/12/31 01:43:56;;;;;;;;;;;1.70;99.90;;;0.48;76.72;94878.13;10528301;28;2030;-83
2020/12/31 01:49:13;;;;;;;;;;;1.50;99.90;;;0.36;77.08;94871.22;10541263;28;2119;-82
2020/12/31 01:54:48;;;;;;;;;;;3.20;99.90;;;0.22;77.58;94871.47;10520122;28;2070;-83
2020/12/31 02:00:05;;;;;;;;;;;1.40;99.90;;;0.11;78.15;94864.34;10530430;28;2122;-84
2020/12/31 02:05:07;;;;;;;;;;;1.20;99.90;;;-0.01;78.41;94856.41;10531721;28;2110;-82
2020/12/31 02:10:18;;;;;;;;;;;2.70;99.90;;;-0.16;78.66;94853.44;10545822;28;2120;-84
2020/12/31 02:15:26;;;;;;;;;;;1.30;99.90;;;-0.17;79.26;94864.25;10541355;28;2352;-85
2020/12/31 02:20:32;;;;;;;;;;;1.00;99.90;;;-0.30;79.22;94866.06;10521110;28;2046;-83
2020/12/31 02:25:40;;;;;;;;;;;0.90;99.90;;;-0.39;79.62;94869.25;10526312;28;2123;-83
2020/12/31 02:30:53;;;;;;;;;;;2.10;99.90;;;-0.45;80.18;94865.69;10528491;28;2296;-82
2020/12/31 02:36:26;;;;;;;;;;;1.40;99.90;;;-0.56;80.23;94869.94;10524762;22;2115;-83
2020/12/31 02:41:49;;;;;;;;;;;1.70;99.90;;;-0.69;80.52;94864.84;10511620;28;1917;-83
2020/12/31 02:46:55;;;;;;;;;;;2.40;99.90;;;-0.69;80.71;94858.78;10505874;28;2065;-83
2020/12/31 02:52:07;;;;;;;;;;;0.80;99.90;;;-0.80;81.79;94849.78;10540930;28;2002;-80
2020/12/31 02:57:22;;;;;;;;;;;0.40;99.90;;;-0.87;81.95;94851.72;10541755;28;2150;-82
2020/12/31 03:02:24;;;;;;;;;;;2.30;99.90;;;-0.92;81.84;94859.50;10509911;28;2042;-82
2020/12/31 03:07:30;;;;;;;;;;;0.20;99.90;;;-0.94;81.86;94851.00;10520830;28;2174;-82
2020/12/31 03:12:42;;;;;;;;;;;2.40;99.90;;;-1.02;82.07;94849.47;10545330;28;2098;-82
2020/12/31 03:17:48;;;;;;;;;;;1.30;99.90;;;-0.84;81.79;94861.81;10542970;28;2090;-84
2020/12/31 03:22:54;;;;;;;;;;;0.80;99.90;;;-0.85;82.15;94855.72;10540468;28;2058;-82
2020/12/31 03:28:04;;;;;;;;;;;1.50;99.90;;;-0.73;80.97;94850.47;10554304;28;2042;-81
2020/12/31 03:33:43;;;;;;;;;;;1.00;99.90;;;-0.68;80.02;94853.25;10521948;28;1987;-81
2020/12/31 03:38:57;;;;;;;;;;;1.70;99.90;;;-0.83;80.42;94842.31;10529647;28;2145;-83
2020/12/31 03:44:10;;;;;;;;;;;0.40;99.90;;;-0.85;80.65;94854.91;10544116;28;2125;-80
2020/12/31 03:49:14;;;;;;;;;;;2.00;99.90;;;-0.89;80.86;94843.19;10529679;28;2070;-82
2020/12/31 03:54:18;;;;;;;;;;;1.30;99.90;;;-1.03;80.73;94847.06;10514989;28;1992;-83
2020/12/31 03:59:20;;;;;;;;;;;0.20;99.90;;;-1.01;81.34;94850.28;10523831;28;1778;-83
2020/12/31 04:04:27;;;;;;;;;;;1.80;99.90;;;-1.16;81.53;94840.13;10526997;28;2022;-81
2020/12/31 04:09:39;;;;;;;;;;;0.70;99.90;;;-1.26;82.47;94827.50;10536880;28;1965;-83
2020/12/31 04:14:45;;;;;;;;;;;1.50;99.90;;;-1.36;82.65;94827.19;10547876;28;2078;-82
2020/12/31 04:19:52;;;;;;;;;;;0.50;99.90;;;-1.44;83.01;94824.88;10521905;28;2039;-83
2020/12/31 04:25:01;;;;;;;;;;;0.80;99.90;;;-1.47;84.20;94826.09;10534059;28;2121;-84
2020/12/31 04:30:09;;;;;;;;;;;1.20;99.90;;;-1.51;83.67;94817.06;10523864;28;2086;-82
2020/12/31 04:35:15;;;;;;;;;;;-0.30;99.90;;;-1.50;84.36;94817.84;10535233;28;2133;-82
2020/12/31 04:40:37;;;;;;;;;;;-0.40;99.90;;;-1.43;83.83;94814.09;10508073;28;1938;-83
2020/12/31 04:45:53;;;;;;;;;;;1.40;99.90;;;-1.43;84.84;94808.03;10524672;28;2034;-83
2020/12/31 04:56:55;;;;;;;;;;;;;;;;;;;;;
2020/12/31 05:02:13;;;;;;;;;;;1.30;99.90;;;-1.57;84.80;94810.03;10533114;28;2045;-82
2020/12/31 05:07:33;;;;;;;;;;;0.30;99.90;;;-1.59;84.99;94811.25;10520168;28;2003;-83
2020/12/31 05:12:39;;;;;;;;;;;0.00;99.90;;;-1.71;85.24;94819.94;10520682;28;2006;-81
2020/12/31 05:17:57;;;;;;;;;;;0.90;99.90;;;-1.67;86.19;94829.00;10514607;28;1923;-82
2020/12/31 05:28:26;;;;;;;;;;;0.90;99.90;;;-1.65;85.16;94811.16;10508636;28;2169;-82
2020/12/31 05:33:32;;;;;;;;;;;-0.60;99.90;;;-1.56;85.08;94808.19;10542531;28;2129;-81
2020/12/31 05:38:48;;;;;;;;;;;0.10;99.90;;;-1.61;85.37;94819.41;10534390;28;1874;-81
2020/12/31 05:43:56;;;;;;;;;;;0.50;99.90;;;-1.67;85.82;94821.09;10520519;28;2006;-82
2020/12/31 05:49:05;;;;;;;;;;;-0.60;99.90;;;-1.51;85.35;94816.25;10539155;28;2109;-80
2020/12/31 05:54:10;;;;;;;;;;;1.00;99.90;;;-1.50;84.26;94815.22;10535035;28;2055;-82
2020/12/31 05:59:28;;;;;;;;;;;-0.30;99.90;;;-1.51;84.25;94813.63;10504935;28;2072;-81
2020/12/31 06:04:44;;;;;;;;;;;-0.40;99.90;;;-1.69;84.87;94812.59;10506769;28;2261;-83
2020/12/31 06:09:50;;;;;;;;;;;0.40;99.90;;;-1.75;85.54;94805.56;10528958;28;2140;-81
2020/12/31 06:14:57;;;;;;;;;;;-0.20;99.90;;;-1.80;85.46;94810.69;10508353;28;2121;-83
2020/12/31 06:20:13;;;;;;;;;;;0.60;99.90;;;-1.91;85.75;94814.06;10551566;28;2131;-82
2020/12/31 06:25:38;;;;;;;;;;;;;;;;;;;;;
2020/12/31 06:30:54;;;;;;;;;;;0.30;99.90;;;-1.97;85.18;94818.41;10542719;28;2192;-83
2020/12/31 06:35:57;;;;;;;;;;;0.70;99.90;;;-2.13;85.21;94815.53;10520333;28;2102;-83
2020/12/31 06:41:01;;;;;;;;;;;0.60;99.90;;;-2.18;85.86;94824.06;10526893;28;2200;-83
2020/12/31 06:46:06;;;;;;;;;;;0.00;99.90;;;-2.21;85.90;94820.06;10513916;28;2202;-82
2020/12/31 06:51:11;;;;;;;;;;;0.50;99.90;;;-2.23;86.24;94822.09;10515460;28;2054;-82
2020/12/31 06:56:15;;;;;;;;;;;0.20;99.90;;;-2.25;86.07;94826.75;10525742;28;2201;-83
2020/12/31 07:01:19;;;;;;;;;;;0.50;99.90;;;-2.33;86.41;94829.69;10534098;28;1966;-80
2020/12/31 07:06:25;;;;;;;;;;;-1.10;99.90;;;-2.22;85.90;94828.97;10524900;28;2034;-82
2020/12/31 07:11:27;;;;;;;;;;;-1.10;99.90;;;-2.08;85.61;94828.84;10528582;28;2166;-83
2020/12/31 07:16:31;;;;;;;;;;;0.90;99.90;;;-2.09;84.38;94827.25;10531935;28;2018;-83
2020/12/31 07:21:39;;;;;;;;;;;0.40;99.90;;;-2.06;83.95;94832.84;10534991;28;2249;-81
2020/12/31 07:26:48;;;;;;;;;;;-0.10;99.90;;;-2.06;84.16;94826.78;10527606;28;2153;-83
2020/12/31 07:31:55;;;;;;;;;;;0.20;99.90;;;-1.98;83.54;94819.41;10544067;28;1477;-83
2020/12/31 07:37:04;;;;;;;;;;;-0.90;99.90;;;-1.79;82.23;94825.47;10541553;28;1935;-82
2020/12/31 07:42:22;;;;;;;;;;;-0.90;99.90;;;-1.80;82.47;94829.13;10518392;28;2328;-83
2020/12/31 07:47:27;;;;;;;;;;;0.20;99.90;;;-1.84;82.19;94825.34;10512367;28;1974;-82
2020/12/31 07:52:29;;;;;;;;;;;1.10;99.90;;;-1.83;82.79;94820.88;10519915;28;2257;-83
2020/12/31 07:57:41;;;;;;;;;;;1.40;99.90;;;-1.80;82.52;94820.44;10522202;28;2319;-82
2020/12/31 08:02:51;;;;;;;;;;;0.40;99.90;;;-1.69;82.05;94812.59;10514646;28;1896;-82
2020/12/31 08:08:01;;;;;;;;;;;0.70;99.90;;;-1.54;81.13;94803.50;10544831;28;1979;-81
2020/12/31 08:13:08;;;;;;;;;;;1.50;99.90;;;-1.49;81.09;94801.00;10532406;28;1796;-81
2020/12/31 08:18:21;;;;;;;;;;;-0.20;99.90;;;-1.40;80.82;94807.56;10515843;28;1807;-82
2020/12/31 08:23:23;;;;;;;;;;;1.00;99.90;;;-1.22;78.47;94790.91;10545648;28;1942;-83
2020/12/31 08:28:25;;;;;;;;;;;-0.30;99.90;;;-1.19;79.11;94796.56;10541671;28;2017;-81
2020/12/31 08:33:29;;;;;;;;;;;0.30;99.90;;;-1.01;78.75;94787.00;10533503;28;1815;-80
2020/12/31 08:38:53;;;;;;;;;;;-0.10;99.90;;;-0.92;78.44;94790.91;10530757;28;1938;-81
2020/12/31 08:44:06;;;;;;;;;;;0.10;99.90;;;-0.73;77.28;94791.63;10529845;28;1959;-83
2020/12/31 08:49:26;;;;;;;;;;;0.10;99.90;;;-0.59;77.13;94791.19;10530148;28;1957;-85
2020/12/31 08:54:34;;;;;;;;;;;1.00;99.90;;;-0.45;75.90;94788.31;10532506;28;1879;-82
2020/12/31 08:59:35;;;;;;;;;;;0.50;99.90;;;-0.27;74.96;94781.09;10529856;28;1951;-82
2020/12/31 09:04:38;;;;;;;;;;;2.00;99.90;;;-0.15;74.13;94759.97;10517788;28;2088;-84
2020/12/31 09:09:44;;;;;;;;;;;2.40;99.90;;;-0.09;74.14;94764.31;10512400;28;1927;-84
2020/12/31 09:14:46;;;;;;;;;;;0.80;99.90;;;0.05;73.53;94764.06;10513857;28;2117;-83
2020/12/31 09:19:48;;;;;;;;;;;2.00;99.90;;;0.08;73.27;94760.97;10529097;28;1826;-84
2020/12/31 09:24:50;;;;;;;;;;;2.40;99.90;;;0.16;72.41;94750.03;10535148;28;1581;-83
2020/12/31 09:29:52;;;;;;;;;;;1.10;99.90;;;0.30;71.43;94745.28;10524910;28;1940;-83
2020/12/31 09:34:54;;;;;;;;;;;1.20;99.90;;;0.44;70.33;94730.75;10533753;28;1978;-84
2020/12/31 09:40:04;;;;;;;;;;;1.30;99.90;;;0.55;70.00;94729.91;10526456;28;1807;-85
2020/12/31 09:45:11;;;;;;;;;;;2.90;99.90;;;0.68;68.05;94731.47;10528746;28;1914;-83
2020/12/31 09:50:22;;;;;;;;;;;3.30;99.90;;;0.79;68.12;94725.31;10542098;28;2025;-82
2020/12/31 09:55:36;;;;;;;;;;;1.70;99.90;;;0.86;66.87;94715.38;10511491;28;2053;-80
2020/12/31 10:00:42;;;;;;;;;;;3.00;99.90;;;0.96;65.86;94720.84;10546892;28;1847;-80
2020/12/31 10:06:03;;;;;;;;;;;1.90;99.90;;;1.08;64.61;94715.47;10519375;28;1905;-82
2020/12/31 10:11:05;;;;;;;;;;;3.40;99.90;;;1.16;64.24;94709.00;10516533;28;1934;-83
2020/12/31 10:21:14;;;;;;;;;;;3.90;98.00;;;1.39;63.35;94687.63;10455262;28;1789;-83
2020/12/31 10:26:16;;;;;;;;;;;2.20;95.90;;;1.52;63.06;94673.25;10477245;28;2027;-84
2020/12/31 10:31:18;;;;;;;;;;;2.50;95.20;;;1.57;61.68;94665.38;10535523;28;1213;-84
2020/12/31 10:41:43;;;;;;;;;;;2.70;92.30;;;1.79;61.68;94647.66;10587623;28;1477;-85
2020/12/31 10:52:39;;;;;;;;;;;4.70;91.10;;;1.93;58.19;94642.00;10506775;28;2071;-81
2020/12/31 10:57:41;;;;;;;;;;;4.30;88.30;;;1.93;58.26;94637.50;10549300;28;1839;-79
2020/12/31 11:02:43;;;;;;;;;;;3.70;87.50;;;1.90;57.77;94630.03;10538228;28;1828;-82
2020/12/31 11:07:45;;;;;;;;;;;5.20;87.10;;;2.04;58.00;94620.66;10534176;28;1883;-83
2020/12/31 11:12:47;;;;;;;;;;;3.70;86.00;;;2.06;58.66;94604.50;10539101;28;1701;-81
2020/12/31 11:17:48;;;;;;;;;;;4.70;86.40;;;2.20;57.84;94600.41;10542595;28;1878;-84
2020/12/31 11:22:50;;;;;;;;;;;3.10;85.40;;;2.30;57.25;94589.13;10529843;28;2061;-83
2020/12/31 11:27:52;;;;;;;;;;;3.30;85.20;;;2.31;58.25;94585.41;10541608;28;1951;-82
2020/12/31 11:32:54;;;;;;;;;;;4.40;85.60;;;2.31;58.20;94580.09;10537517;28;1725;-82
2020/12/31 11:37:59;;;;;;;;;;;4.80;85.60;;;2.35;59.10;94567.94;10547427;28;2064;-84
2020/12/31 11:43:01;;;;;;;;;;;3.30;85.50;;;2.55;58.88;94557.53;10540759;28;1906;-83
2020/12/31 11:48:03;;;;;;;;;;;4.20;86.10;;;2.67;58.79;94552.84;10554033;28;1910;-83
2020/12/31 11:53:05;;;;;;;;;;;3.60;85.50;;;2.81;57.68;94547.09;10526532;28;1597;-84
2020/12/31 11:58:07;;;;;;;;;;;3.80;84.80;;;2.72;57.52;94539.59;10551828;28;2044;-83
2020/12/31 12:03:09;;;;;;;;;;;3.80;83.30;;;2.67;57.79;94536.94;10556668;28;1513;-83
2020/12/31 12:08:15;;;;;;;;;;;3.60;83.50;;;2.67;58.50;94525.47;10540375;28;2220;-84
2020/12/31 12:13:20;;;;;;;;;;;4.80;84.50;;;2.73;56.81;94521.81;10524427;28;1745;-80
2020/12/31 12:18:24;;;;;;;;;;;4.80;83.70;;;2.77;56.79;94508.84;10521800;28;1888;-82
2020/12/31 12:23:26;;;;;;;;;;;3.70;83.10;;;2.74;56.81;94510.16;10498935;28;2008;-79
2020/12/31 12:28:30;;;;;;;;;;;3.80;82.20;;;2.70;56.37;94515.19;10515107;28;1887;-81
2020/12/31 12:33:33;;;;;;;;;;;3.70;81.80;;;2.60;58.45;94514.28;10524549;28;1346;-81
2020/12/31 12:38:35;;;;;;;;;;;3.60;83.30;;;2.58;57.87;94511.91;10544055;28;2087;-81
2020/12/31 12:43:40;;;;;;;;;;;3.60;83.00;;;2.56;58.09;94503.41;10531291;28;1326;-80
2020/12/31 12:48:44;;;;;;;;;;;3.60;82.80;;;2.62;58.19;94506.91;10512087;28;1894;-81
2020/12/31 12:53:53;;;;;;;;;;;4.80;83.60;;;2.69;57.55;94497.66;10536375;28;1262;-79
2020/12/31 12:58:57;;;;;;;;;;;3.90;82.80;;;2.77;57.36;94492.94;10513032;28;1658;-79
2020/12/31 13:03:59;;;;;;;;;;;5.10;83.40;;;2.87;56.23;94485.03;10491585;28;1883;-81
2020/12/31 13:09:15;;;;;;;;;;;5.00;82.60;;;2.84;54.99;94478.38;10500038;28;1910;-80
2020/12/31 13:14:20;;;;;;;;;;;3.90;80.00;;;2.79;55.82;94486.28;10508109;28;1430;-78
2020/12/31 13:19:25;;;;;;;;;;;3.80;80.60;;;2.83;56.38;94481.28;10497478;28;1255;-79
2020/12/31 13:24:27;;;;;;;;;;;3.90;81.00;;;2.81;56.52;94478.09;10490546;28;1589;-80
2020/12/31 13:29:29;;;;;;;;;;;4.50;81.90;;;2.72;57.45;94472.47;10528571;28;1909;-79
2020/12/31 13:34:33;;;;;;;;;;;3.80;81.70;;;2.61;58.32;94484.88;10529763;28;1519;-80
2020/12/31 13:39:36;;;;;;;;;;;4.10;82.70;;;2.67;57.90;94483.84;10509809;28;1867;-79
2020/12/31 13:44:41;;;;;;;;;;;4.10;82.70;;;2.69;57.56;94487.03;10497009;28;1572;-80
2020/12/31 13:49:45;;;;;;;;;;;3.70;82.30;;;2.65;58.52;94493.91;10495228;28;1978;-80
2020/12/31 13:54:56;;;;;;;;;;;3.70;82.60;;;2.59;58.96;94491.47;10531529;28;1422;-80
2020/12/31 14:00:15;;;;;;;;;;;5.00;83.40;;;2.52;60.13;94486.38;10510627;28;1231;-79
2020/12/31 14:05:20;;;;;;;;;;;4.70;84.70;;;2.53;60.14;94487.97;10513365;28;1593;-78
2020/12/31 14:10:36;;;;;;;;;;;4.40;84.40;;;2.64;59.50;94499.47;10490897;28;1980;-80
2020/12/31 14:15:39;;;;;;;;;;;4.40;84.30;;;2.61;59.14;94492.03;10501173;28;1336;-79
2020/12/31 14:20:50;;;;;;;;;;;3.50;83.70;;;2.52;59.72;94497.00;10489369;28;1691;-79
2020/12/31 14:25:55;;;;;;;;;;;4.20;84.10;;;2.44;59.83;94500.13;10498903;28;1260;-81
2020/12/31 14:31:08;;;;;;;;;;;4.70;84.70;;;2.36;60.16;94497.94;10513663;28;1674;-81
2020/12/31 14:36:10;;;;;;;;;;;4.80;84.90;;;2.38;60.87;94493.19;10497067;28;1399;-82
2020/12/31 14:41:14;;;;;;;;;;;3.50;84.90;;;2.29;61.49;94497.34;10494663;28;1296;-83
2020/12/31 15:16:38;;;;;;;;;;;3.30;87.20;;;2.16;63.23;94493.25;10333401;28;1729;-83
2020/12/31 15:21:54;;;;;;;;;;;3.20;87.50;;;2.26;63.36;94492.56;10428225;28;1682;-82
2020/12/31 15:26:58;;;;;;;;;;;5.00;88.90;;;2.09;65.05;94498.75;10502959;28;1914;-84
2020/12/31 15:32:04;;;;;;;;;;;3.50;88.90;;;2.04;66.07;94498.75;10506653;28;1502;-82
2020/12/31 15:37:07;;;;;;;;;;;3.90;90.00;;;1.90;66.50;94494.88;10531132;28;1649;-84
2020/12/31 15:42:09;;;;;;;;;;;3.00;90.10;;;1.77;66.74;94489.97;10510030;28;1294;-83
2020/12/31 15:47:11;;;;;;;;;;;3.70;91.00;;;1.71;67.45;94490.97;10489270;28;1906;-81
2020/12/31 15:52:29;;;;;;;;;;;;;;;;;;;;;
2020/12/31 15:57:51;;;;;;;;;;;4.10;92.20;;;1.41;67.04;94492.25;10504761;28;1847;-81
2020/12/31 16:02:55;;;;;;;;;;;2.60;91.20;;;1.28;66.74;94474.09;10526368;28;1990;-82
2020/12/31 16:08:08;;;;;;;;;;;4.00;91.50;;;1.12;67.86;94485.53;10513256;28;2022;-81
2020/12/31 16:13:10;;;;;;;;;;;3.80;91.80;;;1.02;68.19;94479.09;10507720;28;1954;-81
2020/12/31 16:18:12;;;;;;;;;;;2.80;92.20;;;0.79;68.51;94479.31;10518992;28;1783;-82
2020/12/31 16:23:13;;;;;;;;;;;2.10;92.20;;;0.81;67.55;94483.28;10503931;28;1845;-83
2020/12/31 16:28:15;;;;;;;;;;;2.00;91.80;;;0.79;67.94;94489.88;10545550;28;1926;-81
2020/12/31 16:33:26;;;;;;;;;;;2.70;92.50;;;0.57;68.70;94491.66;10509355;28;2063;-82
2020/12/31 16:38:27;;;;;;;;;;;1.80;92.20;;;0.49;68.88;94488.38;10533617;28;1891;-80
2020/12/31 16:43:32;;;;;;;;;;;1.70;92.70;;;0.50;68.25;94482.06;10530674;28;2050;-79
2020/12/31 16:48:35;;;;;;;;;;;1.70;92.80;;;0.51;67.52;94470.47;10508149;28;1977;-79
2020/12/31 16:53:37;;;;;;;;;;;1.70;92.10;;;0.45;67.34;94474.06;10513262;28;1975;-81
2020/12/31 16:58:55;;;;;;;;;;;1.60;92.00;;;0.48;68.30;94465.66;10506108;28;1961;-80
2020/12/31 17:03:57;;;;;;;;;;;2.80;93.50;;;0.45;68.87;94463.50;10499273;28;1912;-78
2020/12/31 17:08:59;;;;;;;;;;;3.30;94.30;;;0.25;69.82;94468.47;10487075;28;2051;-82
2020/12/31 17:14:02;;;;;;;;;;;1.50;93.60;;;0.11;69.63;94477.75;10507427;28;2030;-80
2020/12/31 17:19:04;;;;;;;;;;;1.40;93.30;;;0.13;69.21;94465.91;10504133;28;2153;-80
2020/12/31 17:24:06;;;;;;;;;;;1.90;93.90;;;0.17;66.55;94467.03;10491801;28;2243;-81
2020/12/31 17:29:09;;;;;;;;;;;1.90;92.50;;;0.19;66.93;94469.41;10526572;28;1958;-82
2020/12/31 17:34:11;;;;;;;;;;;1.30;91.90;;;-0.03;68.15;94467.50;10503317;28;1883;-80
2020/12/31 17:39:13;;;;;;;;;;;1.20;91.60;;;-0.18;67.48;94469.91;10500770;28;1977;-84
2020/12/31 17:44:15;;;;;;;;;;;1.10;91.60;;;-0.25;68.55;94474.53;10510070;28;1951;-83
2020/12/31 17:49:17;;;;;;;;;;;1.00;92.00;;;-0.41;69.30;94473.44;10505713;28;2051;-80
2020/12/31 17:54:21;;;;;;;;;;;0.90;92.60;;;-0.50;70.21;94466.16;10503710;28;2112;-81
2020/12/31 17:59:23;;;;;;;;;;;0.80;93.10;;;-0.44;68.59;94462.59;10508215;28;2024;-80
2020/12/31 18:04:29;;;;;;;;;;;0.70;92.80;;;-0.56;70.05;94473.19;10505575;28;1844;-80
2020/12/31 18:09:34;;;;;;;;;;;1.30;93.80;;;-0.43;69.43;94469.47;10533252;28;2030;-80
2020/12/31 18:25:56;;;;;;;;;;;1.00;94.20;;;-0.76;72.17;94476.25;10508895;28;1960;-79
2020/12/31 18:31:12;;;;;;;;;;;1.60;95.50;;;-0.74;71.15;94476.81;10519275;28;2054;-80
2020/12/31 18:36:26;;;;;;;;;;;1.00;95.30;;;-0.65;70.78;94471.94;10540967;28;1958;-80
2020/12/31 18:41:39;;;;;;;;;;;1.00;95.40;;;-0.71;70.82;94464.97;10524451;28;1895;-81
2020/12/31 18:47:06;;;;;;;;;;;0.40;95.40;;;-0.79;71.90;94471.41;10526727;28;1986;-82
2020/12/31 18:52:16;;;;;;;;;;;1.30;96.40;;;-0.93;72.63;94470.91;10516801;28;1848;-80
2020/12/31 19:03:32;;;;;;;;;;;0.10;96.80;;;-0.97;72.86;94476.84;10370033;28;2055;-82
2020/12/31 19:09:12;;;;;;;;;;;0.10;97.20;;;-0.87;73.20;94479.72;10502457;28;2054;-80
2020/12/31 19:14:46;;;;;;;;;;;1.30;98.60;;;-0.87;71.26;94477.06;10643945;22;1963;-79
2020/12/31 19:26:10;;;;;;;;;;;0.70;96.50;;;-0.96;70.52;94481.09;10623904;22;2014;-80
2020/12/31 19:48:45;;;;;;;;;;;0.20;95.40;;;-1.03;70.34;94494.41;10422392;28;1906;-82
2020/12/31 19:54:33;;;;;;;;;;;0.90;96.20;;;-1.09;71.23;94501.41;10259303;28;2014;-83
2020/12/31 20:05:48;;;;;;;;;;;0.40;96.60;;;-1.02;70.90;94511.03;10196410;29;2093;-82
2020/12/31 20:10:55;;;;;;;;;;;0.10;96.30;;;-1.00;72.08;94514.28;10315890;28;1993;-79
2020/12/31 20:16:06;;;;;;;;;;;0.10;96.80;;;-0.87;72.79;94524.56;10325488;28;2292;-79
2020/12/31 20:21:24;;;;;;;;;;;0.10;97.40;;;-0.68;72.07;94533.13;10316699;28;2287;-79
2020/12/31 20:26:54;;;;;;;;;;;0.30;97.70;;;-0.45;71.96;94522.47;10480251;28;1989;-80
2020/12/31 20:32:06;;;;;;;;;;;0.50;98.00;;;-0.28;70.91;94535.72;10461339;28;1924;-80
2020/12/31 20:37:08;;;;;;;;;;;1.20;97.90;;;-0.10;70.77;94550.59;10482195;28;1902;-81
2020/12/31 20:42:11;;;;;;;;;;;0.80;97.30;;;0.08;70.40;94554.88;10484457;28;2041;-81
2020/12/31 20:47:16;;;;;;;;;;;2.60;97.90;;;0.21;69.95;94563.28;10530564;22;2070;-81
2020/12/31 20:52:42;;;;;;;;;;;1.10;96.70;;;0.32;69.87;94550.22;10508320;28;1890;-81
2020/12/31 20:57:59;;;;;;;;;;;2.60;97.10;;;0.41;69.99;94559.38;10473553;28;1785;-80
2020/12/31 21:26:55;;;;;;;;;;;2.10;94.50;;;0.62;68.09;94547.28;10556820;22;1986;-79
2020/12/31 21:49:26;;;;;;;;;;;1.50;95.40;;;0.28;69.57;94605.44;10362882;28;1958;-82
2020/12/31 22:18:49;;;;;;;;;;;2.10;97.60;;;0.03;72.38;94612.91;10378435;28;1968;-82
2020/12/31 22:24:00;;;;;;;;;;;1.10;98.00;;;0.06;71.93;94599.22;10502559;28;1976;-78
2020/12/31 22:29:49;;;;;;;;;;;1.00;97.90;;;0.07;71.72;94603.47;10386127;28;2198;-80
2020/12/31 22:35:07;;;;;;;;;;;1.00;97.90;;;0.07;71.25;94598.19;10378634;28;2172;-81
2020/12/31 22:40:43;;;;;;;;;;;1.10;97.70;;;0.04;72.32;94582.78;10359852;28;2025;-81
2020/12/31 22:46:08;;;;;;;;;;;2.60;98.70;;;0.27;70.15;94569.47;10384226;28;2187;-81
2020/12/31 22:51:22;;;;;;;;;;;2.70;98.60;;;0.18;70.52;94555.03;10395391;28;2116;-81
2020/12/31 23:02:26;;;;;;;;;;;1.20;96.90;;;0.18;70.49;94526.75;10484532;28;2049;-79
2020/12/31 23:26:20;;;;;;;;;;;2.70;98.90;;;-0.27;72.89;94542.63;10328933;28;1950;-79
2020/12/31 23:37:47;;;;;;;;;;;1.50;99.10;;;-0.32;73.62;94510.81;10296235;28;2174;-82
2020/12/31 23:43:06;;;;;;;;;;;1.70;99.90;;;-0.55;74.26;94515.19;10402766;28;2057;-82
